sensor_id;sensor_type;location;lat;lon;timestamp;temperature;humidity
37794;DHT22;23632;48.826;15.176;2022-07-22T00:02:26;22.30;69.70
37794;DHT22;23632;48.826;15.176;2022-07-22T00:04:54;22.30;70.20
37794;DHT22;23632;48.826;15.176;2022-07-22T00:07:21;22.30;70.20
37794;DHT22;23632;48.826;15.176;2022-07-22T00:09:48;22.30;70.20
37794;DHT22;23632;48.826;15.176;2022-07-22T00:12:16;22.20;70.20
37794;DHT22;23632;48.826;15.176;2022-07-22T00:14:43;22.20;70.30
37794;DHT22;23632;48.826;15.176;2022-07-22T00:17:10;22.20;70.30
37794;DHT22;23632;48.826;15.176;2022-07-22T00:19:38;22.10;71.30
37794;DHT22;23632;48.826;15.176;2022-07-22T00:22:05;22.10;70.20
37794;DHT22;23632;48.826;15.176;2022-07-22T00:24:32;22.10;70.30
37794;DHT22;23632;48.826;15.176;2022-07-22T00:26:59;22.10;70.40
37794;DHT22;23632;48.826;15.176;2022-07-22T00:29:26;22.10;70.50
37794;DHT22;23632;48.826;15.176;2022-07-22T00:31:53;22.10;70.60
37794;DHT22;23632;48.826;15.176;2022-07-22T00:34:20;22.10;70.80
37794;DHT22;23632;48.826;15.176;2022-07-22T00:36:48;22.10;70.80
37794;DHT22;23632;48.826;15.176;2022-07-22T00:39:15;22.10;70.70
37794;DHT22;23632;48.826;15.176;2022-07-22T00:41:43;22.20;70.70
37794;DHT22;23632;48.826;15.176;2022-07-22T00:44:11;22.10;70.70
37794;DHT22;23632;48.826;15.176;2022-07-22T00:46:39;22.10;70.80
37794;DHT22;23632;48.826;15.176;2022-07-22T00:49:07;22.10;70.90
37794;DHT22;23632;48.826;15.176;2022-07-22T00:51:36;22.10;71.30
37794;DHT22;23632;48.826;15.176;2022-07-22T00:54:07;22.10;71.30
37794;DHT22;23632;48.826;15.176;2022-07-22T00:56:35;22.00;71.50
37794;DHT22;23632;48.826;15.176;2022-07-22T00:59:06;22.00;71.90
37794;DHT22;23632;48.826;15.176;2022-07-22T01:01:35;22.00;72.00
37794;DHT22;23632;48.826;15.176;2022-07-22T01:04:04;21.90;71.80
37794;DHT22;23632;48.826;15.176;2022-07-22T01:06:32;22.00;72.20
37794;DHT22;23632;48.826;15.176;2022-07-22T01:08:59;22.00;72.30
37794;DHT22;23632;48.826;15.176;2022-07-22T01:11:27;21.90;72.20
37794;DHT22;23632;48.826;15.176;2022-07-22T01:13:56;21.90;72.40
37794;DHT22;23632;48.826;15.176;2022-07-22T01:16:24;21.90;72.60
37794;DHT22;23632;48.826;15.176;2022-07-22T01:18:52;21.90;72.40
37794;DHT22;23632;48.826;15.176;2022-07-22T01:21:20;22.00;72.70
37794;DHT22;23632;48.826;15.176;2022-07-22T01:23:47;21.90;72.70
37794;DHT22;23632;48.826;15.176;2022-07-22T01:26:15;21.90;72.90
37794;DHT22;23632;48.826;15.176;2022-07-22T01:28:44;21.90;72.90
37794;DHT22;23632;48.826;15.176;2022-07-22T01:31:12;21.90;73.30
37794;DHT22;23632;48.826;15.176;2022-07-22T01:33:39;21.90;73.20
37794;DHT22;23632;48.826;15.176;2022-07-22T01:36:07;21.90;73.50
37794;DHT22;23632;48.826;15.176;2022-07-22T01:38:35;21.90;73.50
37794;DHT22;23632;48.826;15.176;2022-07-22T01:41:03;21.80;73.50
37794;DHT22;23632;48.826;15.176;2022-07-22T01:43:31;21.80;73.80
37794;DHT22;23632;48.826;15.176;2022-07-22T01:46:00;21.80;73.70
37794;DHT22;23632;48.826;15.176;2022-07-22T01:48:29;21.80;73.70
37794;DHT22;23632;48.826;15.176;2022-07-22T01:50:57;21.80;73.70
37794;DHT22;23632;48.826;15.176;2022-07-22T01:53:25;21.80;74.00
37794;DHT22;23632;48.826;15.176;2022-07-22T01:55:53;21.80;74.00
37794;DHT22;23632;48.826;15.176;2022-07-22T01:58:20;21.70;74.30
37794;DHT22;23632;48.826;15.176;2022-07-22T02:00:48;21.70;74.40
37794;DHT22;23632;48.826;15.176;2022-07-22T02:03:15;21.80;74.20
37794;DHT22;23632;48.826;15.176;2022-07-22T02:05:42;21.70;74.40
37794;DHT22;23632;48.826;15.176;2022-07-22T02:08:21;21.70;74.40
37794;DHT22;23632;48.826;15.176;2022-07-22T02:11:07;21.70;74.50
37794;DHT22;23632;48.826;15.176;2022-07-22T02:13:43;21.70;74.40
37794;DHT22;23632;48.826;15.176;2022-07-22T02:16:10;21.70;74.60
37794;DHT22;23632;48.826;15.176;2022-07-22T02:18:46;21.60;74.60
37794;DHT22;23632;48.826;15.176;2022-07-22T02:21:13;21.70;74.40
37794;DHT22;23632;48.826;15.176;2022-07-22T02:23:40;21.60;74.50
37794;DHT22;23632;48.826;15.176;2022-07-22T02:26:09;21.70;74.70
37794;DHT22;23632;48.826;15.176;2022-07-22T02:28:36;21.60;74.70
37794;DHT22;23632;48.826;15.176;2022-07-22T02:31:03;21.60;74.80
37794;DHT22;23632;48.826;15.176;2022-07-22T02:33:32;21.60;74.90
37794;DHT22;23632;48.826;15.176;2022-07-22T02:36:00;21.60;75.00
37794;DHT22;23632;48.826;15.176;2022-07-22T02:38:30;21.60;75.10
37794;DHT22;23632;48.826;15.176;2022-07-22T02:40:57;21.60;75.30
37794;DHT22;23632;48.826;15.176;2022-07-22T02:43:24;21.60;75.50
37794;DHT22;23632;48.826;15.176;2022-07-22T02:45:52;21.60;75.50
37794;DHT22;23632;48.826;15.176;2022-07-22T02:48:20;21.60;75.30
37794;DHT22;23632;48.826;15.176;2022-07-22T02:50:48;21.50;75.30
37794;DHT22;23632;48.826;15.176;2022-07-22T02:53:21;21.60;75.30
37794;DHT22;23632;48.826;15.176;2022-07-22T02:55:49;21.60;75.60
37794;DHT22;23632;48.826;15.176;2022-07-22T02:58:16;21.60;75.60
37794;DHT22;23632;48.826;15.176;2022-07-22T03:00:45;21.60;76.10
37794;DHT22;23632;48.826;15.176;2022-07-22T03:03:12;21.60;76.00
37794;DHT22;23632;48.826;15.176;2022-07-22T03:05:40;21.60;76.20
37794;DHT22;23632;48.826;15.176;2022-07-22T03:08:33;21.60;76.20
37794;DHT22;23632;48.826;15.176;2022-07-22T03:11:01;21.60;76.00
37794;DHT22;23632;48.826;15.176;2022-07-22T03:13:28;21.60;76.20
37794;DHT22;23632;48.826;15.176;2022-07-22T03:15:55;21.60;76.10
37794;DHT22;23632;48.826;15.176;2022-07-22T03:18:23;21.60;76.10
37794;DHT22;23632;48.826;15.176;2022-07-22T03:20:50;21.60;76.10
37794;DHT22;23632;48.826;15.176;2022-07-22T03:23:17;21.60;76.10
37794;DHT22;23632;48.826;15.176;2022-07-22T03:25:44;21.60;76.10
37794;DHT22;23632;48.826;15.176;2022-07-22T03:28:12;21.60;76.30
37794;DHT22;23632;48.826;15.176;2022-07-22T03:30:39;21.50;76.20
37794;DHT22;23632;48.826;15.176;2022-07-22T03:33:06;21.50;76.20
37794;DHT22;23632;48.826;15.176;2022-07-22T03:35:38;21.50;76.30
37794;DHT22;23632;48.826;15.176;2022-07-22T03:38:06;21.50;76.30
37794;DHT22;23632;48.826;15.176;2022-07-22T03:40:35;21.50;76.20
37794;DHT22;23632;48.826;15.176;2022-07-22T03:43:03;21.50;76.10
37794;DHT22;23632;48.826;15.176;2022-07-22T03:45:32;21.40;76.10
37794;DHT22;23632;48.826;15.176;2022-07-22T03:47:59;21.40;76.00
37794;DHT22;23632;48.826;15.176;2022-07-22T03:50:32;21.40;76.00
37794;DHT22;23632;48.826;15.176;2022-07-22T03:53:00;21.40;77.00
37794;DHT22;23632;48.826;15.176;2022-07-22T03:55:28;21.40;76.20
37794;DHT22;23632;48.826;15.176;2022-07-22T03:57:56;21.40;76.30
37794;DHT22;23632;48.826;15.176;2022-07-22T04:00:28;21.40;76.30
37794;DHT22;23632;48.826;15.176;2022-07-22T04:02:57;21.40;76.40
37794;DHT22;23632;48.826;15.176;2022-07-22T04:05:45;21.40;76.30
37794;DHT22;23632;48.826;15.176;2022-07-22T04:08:16;21.40;76.20
37794;DHT22;23632;48.826;15.176;2022-07-22T04:10:45;21.40;76.20
37794;DHT22;23632;48.826;15.176;2022-07-22T04:13:13;21.40;76.30
37794;DHT22;23632;48.826;15.176;2022-07-22T04:15:51;21.40;76.40
37794;DHT22;23632;48.826;15.176;2022-07-22T04:18:18;21.50;76.50
37794;DHT22;23632;48.826;15.176;2022-07-22T04:20:46;21.50;76.40
37794;DHT22;23632;48.826;15.176;2022-07-22T04:23:32;21.50;76.60
37794;DHT22;23632;48.826;15.176;2022-07-22T04:26:19;21.60;76.60
37794;DHT22;23632;48.826;15.176;2022-07-22T04:28:47;21.60;77.50
37794;DHT22;23632;48.826;15.176;2022-07-22T04:31:14;21.60;76.60
37794;DHT22;23632;48.826;15.176;2022-07-22T04:33:42;21.70;76.70
37794;DHT22;23632;48.826;15.176;2022-07-22T04:36:10;21.70;76.60
37794;DHT22;23632;48.826;15.176;2022-07-22T04:38:37;21.70;76.50
37794;DHT22;23632;48.826;15.176;2022-07-22T04:41:07;21.80;76.50
37794;DHT22;23632;48.826;15.176;2022-07-22T04:43:35;21.80;76.40
37794;DHT22;23632;48.826;15.176;2022-07-22T04:46:05;21.90;76.40
37794;DHT22;23632;48.826;15.176;2022-07-22T04:48:36;21.90;76.30
37794;DHT22;23632;48.826;15.176;2022-07-22T04:51:03;21.90;76.20
37794;DHT22;23632;48.826;15.176;2022-07-22T04:53:32;22.00;76.30
37794;DHT22;23632;48.826;15.176;2022-07-22T04:56:16;22.10;76.30
37794;DHT22;23632;48.826;15.176;2022-07-22T04:58:44;22.10;76.20
37794;DHT22;23632;48.826;15.176;2022-07-22T05:01:12;22.20;76.20
37794;DHT22;23632;48.826;15.176;2022-07-22T05:03:41;22.30;76.30
37794;DHT22;23632;48.826;15.176;2022-07-22T05:06:09;22.30;76.00
37794;DHT22;23632;48.826;15.176;2022-07-22T05:08:40;22.40;76.00
37794;DHT22;23632;48.826;15.176;2022-07-22T05:11:07;22.40;75.90
37794;DHT22;23632;48.826;15.176;2022-07-22T05:13:35;22.50;75.90
37794;DHT22;23632;48.826;15.176;2022-07-22T05:16:06;22.60;75.90
37794;DHT22;23632;48.826;15.176;2022-07-22T05:18:36;22.60;75.80
37794;DHT22;23632;48.826;15.176;2022-07-22T05:21:05;22.60;75.70
37794;DHT22;23632;48.826;15.176;2022-07-22T05:23:33;22.70;75.70
37794;DHT22;23632;48.826;15.176;2022-07-22T05:26:01;22.70;75.70
37794;DHT22;23632;48.826;15.176;2022-07-22T05:28:28;22.80;75.80
37794;DHT22;23632;48.826;15.176;2022-07-22T05:30:56;22.80;75.80
37794;DHT22;23632;48.826;15.176;2022-07-22T05:33:27;22.90;75.60
37794;DHT22;23632;48.826;15.176;2022-07-22T05:36:22;23.00;75.50
37794;DHT22;23632;48.826;15.176;2022-07-22T05:38:49;23.10;75.40
37794;DHT22;23632;48.826;15.176;2022-07-22T05:41:18;23.20;75.50
37794;DHT22;23632;48.826;15.176;2022-07-22T05:43:45;23.30;75.10
37794;DHT22;23632;48.826;15.176;2022-07-22T05:46:12;23.40;74.90
37794;DHT22;23632;48.826;15.176;2022-07-22T05:48:41;23.40;74.60
37794;DHT22;23632;48.826;15.176;2022-07-22T05:51:12;23.50;74.40
37794;DHT22;23632;48.826;15.176;2022-07-22T05:53:41;23.50;74.30
37794;DHT22;23632;48.826;15.176;2022-07-22T05:56:11;23.50;74.20
37794;DHT22;23632;48.826;15.176;2022-07-22T05:58:39;23.50;74.20
37794;DHT22;23632;48.826;15.176;2022-07-22T06:01:09;23.50;74.20
37794;DHT22;23632;48.826;15.176;2022-07-22T06:03:38;23.50;74.20
37794;DHT22;23632;48.826;15.176;2022-07-22T06:06:06;23.50;74.30
37794;DHT22;23632;48.826;15.176;2022-07-22T06:08:37;23.50;74.30
37794;DHT22;23632;48.826;15.176;2022-07-22T06:11:04;23.60;74.50
37794;DHT22;23632;48.826;15.176;2022-07-22T06:13:32;23.60;74.40
37794;DHT22;23632;48.826;15.176;2022-07-22T06:16:00;23.60;74.20
37794;DHT22;23632;48.826;15.176;2022-07-22T06:18:30;23.70;74.30
37794;DHT22;23632;48.826;15.176;2022-07-22T06:20:57;23.80;74.20
37794;DHT22;23632;48.826;15.176;2022-07-22T06:23:27;23.80;74.10
37794;DHT22;23632;48.826;15.176;2022-07-22T06:25:55;23.90;73.90
37794;DHT22;23632;48.826;15.176;2022-07-22T06:28:31;24.00;73.70
37794;DHT22;23632;48.826;15.176;2022-07-22T06:30:59;24.10;73.50
37794;DHT22;23632;48.826;15.176;2022-07-22T06:33:27;24.20;73.40
37794;DHT22;23632;48.826;15.176;2022-07-22T06:35:56;24.20;73.20
37794;DHT22;23632;48.826;15.176;2022-07-22T06:38:25;24.30;73.20
37794;DHT22;23632;48.826;15.176;2022-07-22T06:41:25;24.40;73.50
37794;DHT22;23632;48.826;15.176;2022-07-22T06:44:05;24.50;73.20
37794;DHT22;23632;48.826;15.176;2022-07-22T06:46:32;24.50;73.10
37794;DHT22;23632;48.826;15.176;2022-07-22T06:49:01;24.60;72.90
37794;DHT22;23632;48.826;15.176;2022-07-22T06:51:32;24.70;73.10
37794;DHT22;23632;48.826;15.176;2022-07-22T06:54:01;24.80;73.30
37794;DHT22;23632;48.826;15.176;2022-07-22T06:56:28;24.90;73.20
37794;DHT22;23632;48.826;15.176;2022-07-22T06:58:55;25.00;72.70
37794;DHT22;23632;48.826;15.176;2022-07-22T07:01:23;25.20;72.70
37794;DHT22;23632;48.826;15.176;2022-07-22T07:03:55;25.30;72.50
37794;DHT22;23632;48.826;15.176;2022-07-22T07:06:22;25.40;72.30
37794;DHT22;23632;48.826;15.176;2022-07-22T07:09:03;25.50;71.90
37794;DHT22;23632;48.826;15.176;2022-07-22T07:11:31;25.60;70.80
37794;DHT22;23632;48.826;15.176;2022-07-22T07:14:01;25.70;70.70
37794;DHT22;23632;48.826;15.176;2022-07-22T07:16:29;25.80;71.00
37794;DHT22;23632;48.826;15.176;2022-07-22T07:18:58;25.90;70.30
37794;DHT22;23632;48.826;15.176;2022-07-22T07:21:27;26.00;70.50
37794;DHT22;23632;48.826;15.176;2022-07-22T07:23:55;26.00;70.00
37794;DHT22;23632;48.826;15.176;2022-07-22T07:26:24;26.10;70.10
37794;DHT22;23632;48.826;15.176;2022-07-22T07:28:51;26.10;70.00
37794;DHT22;23632;48.826;15.176;2022-07-22T07:31:32;26.20;69.60
37794;DHT22;23632;48.826;15.176;2022-07-22T07:34:08;26.30;69.60
37794;DHT22;23632;48.826;15.176;2022-07-22T07:36:36;26.40;69.40
37794;DHT22;23632;48.826;15.176;2022-07-22T07:39:04;26.50;69.10
37794;DHT22;23632;48.826;15.176;2022-07-22T07:41:31;26.70;68.80
37794;DHT22;23632;48.826;15.176;2022-07-22T07:43:59;26.80;68.40
37794;DHT22;23632;48.826;15.176;2022-07-22T07:46:26;26.90;68.60
37794;DHT22;23632;48.826;15.176;2022-07-22T07:48:56;27.00;68.60
37794;DHT22;23632;48.826;15.176;2022-07-22T07:51:25;27.10;68.20
37794;DHT22;23632;48.826;15.176;2022-07-22T07:53:52;27.30;67.40
37794;DHT22;23632;48.826;15.176;2022-07-22T07:56:21;27.30;66.90
37794;DHT22;23632;48.826;15.176;2022-07-22T07:58:49;27.40;66.60
37794;DHT22;23632;48.826;15.176;2022-07-22T08:01:36;27.40;66.80
37794;DHT22;23632;48.826;15.176;2022-07-22T08:04:25;27.50;66.90
37794;DHT22;23632;48.826;15.176;2022-07-22T08:07:08;27.60;66.40
37794;DHT22;23632;48.826;15.176;2022-07-22T08:09:37;27.80;66.00
37794;DHT22;23632;48.826;15.176;2022-07-22T08:12:13;27.80;65.10
37794;DHT22;23632;48.826;15.176;2022-07-22T08:14:59;27.90;65.00
37794;DHT22;23632;48.826;15.176;2022-07-22T08:17:45;27.90;64.70
37794;DHT22;23632;48.826;15.176;2022-07-22T08:20:13;27.90;64.20
37794;DHT22;23632;48.826;15.176;2022-07-22T08:22:47;27.90;63.60
37794;DHT22;23632;48.826;15.176;2022-07-22T08:25:14;27.90;64.00
37794;DHT22;23632;48.826;15.176;2022-07-22T08:27:43;27.90;64.40
37794;DHT22;23632;48.826;15.176;2022-07-22T08:30:11;28.00;64.30
37794;DHT22;23632;48.826;15.176;2022-07-22T08:32:39;28.00;64.30
37794;DHT22;23632;48.826;15.176;2022-07-22T08:35:07;28.00;64.80
37794;DHT22;23632;48.826;15.176;2022-07-22T08:37:36;28.00;64.00
37794;DHT22;23632;48.826;15.176;2022-07-22T08:40:06;28.00;64.10
37794;DHT22;23632;48.826;15.176;2022-07-22T08:42:40;28.00;63.70
37794;DHT22;23632;48.826;15.176;2022-07-22T08:45:08;28.00;64.20
37794;DHT22;23632;48.826;15.176;2022-07-22T08:47:46;28.10;63.90
37794;DHT22;23632;48.826;15.176;2022-07-22T08:50:34;28.10;63.50
37794;DHT22;23632;48.826;15.176;2022-07-22T08:53:12;28.10;63.20
37794;DHT22;23632;48.826;15.176;2022-07-22T08:55:45;28.20;63.40
37794;DHT22;23632;48.826;15.176;2022-07-22T08:58:16;28.20;63.70
37794;DHT22;23632;48.826;15.176;2022-07-22T09:00:43;28.30;63.40
37794;DHT22;23632;48.826;15.176;2022-07-22T09:03:24;28.40;63.10
37794;DHT22;23632;48.826;15.176;2022-07-22T09:05:59;28.50;63.00
37794;DHT22;23632;48.826;15.176;2022-07-22T09:08:27;28.50;62.50
37794;DHT22;23632;48.826;15.176;2022-07-22T09:11:24;28.60;62.10
37794;DHT22;23632;48.826;15.176;2022-07-22T09:14:15;28.60;61.60
37794;DHT22;23632;48.826;15.176;2022-07-22T09:16:51;28.60;62.20
37794;DHT22;23632;48.826;15.176;2022-07-22T09:19:34;28.70;61.90
37794;DHT22;23632;48.826;15.176;2022-07-22T09:22:41;28.70;61.50
37794;DHT22;23632;48.826;15.176;2022-07-22T09:28:11;28.80;61.10
37794;DHT22;23632;48.826;15.176;2022-07-22T09:31:00;28.80;61.00
37794;DHT22;23632;48.826;15.176;2022-07-22T09:33:33;28.80;61.10
37794;DHT22;23632;48.826;15.176;2022-07-22T09:36:27;28.80;61.10
37794;DHT22;23632;48.826;15.176;2022-07-22T09:38:56;28.90;61.10
37794;DHT22;23632;48.826;15.176;2022-07-22T09:41:25;28.90;60.90
37794;DHT22;23632;48.826;15.176;2022-07-22T09:43:52;28.90;60.40
37794;DHT22;23632;48.826;15.176;2022-07-22T09:46:36;29.00;60.50
37794;DHT22;23632;48.826;15.176;2022-07-22T09:49:42;29.00;60.40
37794;DHT22;23632;48.826;15.176;2022-07-22T09:52:26;29.10;60.00
37794;DHT22;23632;48.826;15.176;2022-07-22T09:55:05;29.20;59.10
37794;DHT22;23632;48.826;15.176;2022-07-22T09:57:36;29.30;58.80
37794;DHT22;23632;48.826;15.176;2022-07-22T10:00:05;29.40;58.40
37794;DHT22;23632;48.826;15.176;2022-07-22T10:02:50;29.40;58.00
37794;DHT22;23632;48.826;15.176;2022-07-22T10:05:37;29.60;57.60
37794;DHT22;23632;48.826;15.176;2022-07-22T10:08:07;29.70;57.50
37794;DHT22;23632;48.826;15.176;2022-07-22T10:10:37;29.80;56.70
37794;DHT22;23632;48.826;15.176;2022-07-22T10:13:07;29.90;56.50
37794;DHT22;23632;48.826;15.176;2022-07-22T10:15:36;30.00;56.20
37794;DHT22;23632;48.826;15.176;2022-07-22T10:18:07;30.10;56.80
37794;DHT22;23632;48.826;15.176;2022-07-22T10:20:41;30.30;55.90
37794;DHT22;23632;48.826;15.176;2022-07-22T10:23:12;30.30;56.10
37794;DHT22;23632;48.826;15.176;2022-07-22T10:25:54;30.40;55.20
37794;DHT22;23632;48.826;15.176;2022-07-22T10:28:26;30.50;54.90
37794;DHT22;23632;48.826;15.176;2022-07-22T10:33:52;30.80;53.00
37794;DHT22;23632;48.826;15.176;2022-07-22T10:36:38;30.80;53.50
37794;DHT22;23632;48.826;15.176;2022-07-22T10:39:12;31.00;51.20
37794;DHT22;23632;48.826;15.176;2022-07-22T10:41:42;31.00;53.90
37794;DHT22;23632;48.826;15.176;2022-07-22T10:44:57;31.10;53.40
37794;DHT22;23632;48.826;15.176;2022-07-22T10:53:08;31.40;52.90
37794;DHT22;23632;48.826;15.176;2022-07-22T10:55:37;31.40;53.10
37794;DHT22;23632;48.826;15.176;2022-07-22T11:01:09;31.60;53.90
37794;DHT22;23632;48.826;15.176;2022-07-22T11:03:40;31.60;52.40
37794;DHT22;23632;48.826;15.176;2022-07-22T11:09:04;31.70;52.10
37794;DHT22;23632;48.826;15.176;2022-07-22T11:16:44;31.90;51.70
37794;DHT22;23632;48.826;15.176;2022-07-22T11:19:14;32.00;51.90
37794;DHT22;23632;48.826;15.176;2022-07-22T11:21:41;32.10;51.60
37794;DHT22;23632;48.826;15.176;2022-07-22T11:24:12;32.20;51.10
37794;DHT22;23632;48.826;15.176;2022-07-22T11:26:43;32.30;50.60
37794;DHT22;23632;48.826;15.176;2022-07-22T11:29:31;32.40;50.70
37794;DHT22;23632;48.826;15.176;2022-07-22T11:32:05;32.50;50.90
37794;DHT22;23632;48.826;15.176;2022-07-22T11:34:40;32.60;50.10
37794;DHT22;23632;48.826;15.176;2022-07-22T11:37:16;32.70;49.80
37794;DHT22;23632;48.826;15.176;2022-07-22T11:39:46;32.80;49.70
37794;DHT22;23632;48.826;15.176;2022-07-22T11:42:13;32.80;49.30
37794;DHT22;23632;48.826;15.176;2022-07-22T11:44:41;32.80;49.30
37794;DHT22;23632;48.826;15.176;2022-07-22T11:47:12;32.90;48.00
37794;DHT22;23632;48.826;15.176;2022-07-22T11:49:39;32.90;49.10
37794;DHT22;23632;48.826;15.176;2022-07-22T11:52:09;33.00;47.50
37794;DHT22;23632;48.826;15.176;2022-07-22T11:54:43;33.00;47.90
37794;DHT22;23632;48.826;15.176;2022-07-22T11:57:12;33.00;47.50
37794;DHT22;23632;48.826;15.176;2022-07-22T11:59:40;33.00;46.90
37794;DHT22;23632;48.826;15.176;2022-07-22T12:02:09;33.00;46.90
37794;DHT22;23632;48.826;15.176;2022-07-22T12:04:39;33.00;47.30
37794;DHT22;23632;48.826;15.176;2022-07-22T12:07:07;33.00;46.70
37794;DHT22;23632;48.826;15.176;2022-07-22T12:09:36;33.10;45.90
37794;DHT22;23632;48.826;15.176;2022-07-22T12:12:05;33.10;46.10
37794;DHT22;23632;48.826;15.176;2022-07-22T12:14:33;33.20;47.60
37794;DHT22;23632;48.826;15.176;2022-07-22T12:17:04;33.20;46.10
37794;DHT22;23632;48.826;15.176;2022-07-22T12:19:35;33.20;47.00
37794;DHT22;23632;48.826;15.176;2022-07-22T12:22:11;33.30;46.10
37794;DHT22;23632;48.826;15.176;2022-07-22T12:24:56;33.40;44.40
37794;DHT22;23632;48.826;15.176;2022-07-22T12:27:26;33.60;45.20
37794;DHT22;23632;48.826;15.176;2022-07-22T12:29:53;33.90;45.50
37794;DHT22;23632;48.826;15.176;2022-07-22T12:34:59;34.80;46.20
37794;DHT22;23632;48.826;15.176;2022-07-22T12:37:44;35.50;45.60
37794;DHT22;23632;48.826;15.176;2022-07-22T12:40:21;36.20;45.30
37794;DHT22;23632;48.826;15.176;2022-07-22T12:43:09;37.00;43.70
37794;DHT22;23632;48.826;15.176;2022-07-22T12:45:37;37.80;44.30
37794;DHT22;23632;48.826;15.176;2022-07-22T12:48:07;38.60;42.20
37794;DHT22;23632;48.826;15.176;2022-07-22T12:50:42;39.20;41.80
37794;DHT22;23632;48.826;15.176;2022-07-22T12:53:11;39.90;39.40
37794;DHT22;23632;48.826;15.176;2022-07-22T12:58:31;41.10;37.40
37794;DHT22;23632;48.826;15.176;2022-07-22T13:01:00;41.60;38.20
37794;DHT22;23632;48.826;15.176;2022-07-22T13:03:28;42.00;36.60
37794;DHT22;23632;48.826;15.176;2022-07-22T13:05:59;42.50;35.40
37794;DHT22;23632;48.826;15.176;2022-07-22T13:08:28;42.90;35.60
37794;DHT22;23632;48.826;15.176;2022-07-22T13:11:11;43.30;34.90
37794;DHT22;23632;48.826;15.176;2022-07-22T13:13:39;43.90;34.50
37794;DHT22;23632;48.826;15.176;2022-07-22T13:16:06;44.30;33.20
37794;DHT22;23632;48.826;15.176;2022-07-22T13:18:34;44.70;33.70
37794;DHT22;23632;48.826;15.176;2022-07-22T13:21:02;45.10;33.70
37794;DHT22;23632;48.826;15.176;2022-07-22T13:23:30;45.60;33.10
37794;DHT22;23632;48.826;15.176;2022-07-22T13:25:57;46.10;32.40
37794;DHT22;23632;48.826;15.176;2022-07-22T13:28:24;46.70;32.70
37794;DHT22;23632;48.826;15.176;2022-07-22T13:30:52;47.20;32.30
37794;DHT22;23632;48.826;15.176;2022-07-22T13:33:19;47.80;31.30
37794;DHT22;23632;48.826;15.176;2022-07-22T13:35:46;48.20;30.50
37794;DHT22;23632;48.826;15.176;2022-07-22T13:38:14;48.70;30.50
37794;DHT22;23632;48.826;15.176;2022-07-22T13:40:44;49.20;29.80
37794;DHT22;23632;48.826;15.176;2022-07-22T13:43:22;49.70;28.70
37794;DHT22;23632;48.826;15.176;2022-07-22T13:45:52;50.10;28.50
37794;DHT22;23632;48.826;15.176;2022-07-22T13:48:19;50.30;27.90
37794;DHT22;23632;48.826;15.176;2022-07-22T13:50:48;50.60;27.60
37794;DHT22;23632;48.826;15.176;2022-07-22T13:53:15;50.90;27.20
37794;DHT22;23632;48.826;15.176;2022-07-22T13:55:43;51.10;26.50
37794;DHT22;23632;48.826;15.176;2022-07-22T13:58:10;51.20;26.00
37794;DHT22;23632;48.826;15.176;2022-07-22T14:00:40;51.40;25.60
37794;DHT22;23632;48.826;15.176;2022-07-22T14:03:07;51.60;24.80
37794;DHT22;23632;48.826;15.176;2022-07-22T14:05:35;51.70;25.10
37794;DHT22;23632;48.826;15.176;2022-07-22T14:08:02;51.90;24.80
37794;DHT22;23632;48.826;15.176;2022-07-22T14:10:30;52.00;24.80
37794;DHT22;23632;48.826;15.176;2022-07-22T14:12:57;52.20;24.40
37794;DHT22;23632;48.826;15.176;2022-07-22T14:15:24;52.30;23.90
37794;DHT22;23632;48.826;15.176;2022-07-22T14:17:52;52.50;23.80
37794;DHT22;23632;48.826;15.176;2022-07-22T14:20:19;52.60;23.40
37794;DHT22;23632;48.826;15.176;2022-07-22T14:22:47;52.70;23.10
37794;DHT22;23632;48.826;15.176;2022-07-22T14:25:14;52.90;23.00
37794;DHT22;23632;48.826;15.176;2022-07-22T14:27:41;52.90;23.10
37794;DHT22;23632;48.826;15.176;2022-07-22T14:30:09;53.00;23.10
37794;DHT22;23632;48.826;15.176;2022-07-22T14:32:36;53.00;22.60
37794;DHT22;23632;48.826;15.176;2022-07-22T14:35:04;53.20;22.60
37794;DHT22;23632;48.826;15.176;2022-07-22T14:37:33;53.40;22.60
37794;DHT22;23632;48.826;15.176;2022-07-22T14:40:00;53.40;22.40
37794;DHT22;23632;48.826;15.176;2022-07-22T14:42:28;53.60;22.00
37794;DHT22;23632;48.826;15.176;2022-07-22T14:44:55;53.70;21.70
37794;DHT22;23632;48.826;15.176;2022-07-22T14:47:22;53.80;21.40
37794;DHT22;23632;48.826;15.176;2022-07-22T14:49:51;54.00;21.30
37794;DHT22;23632;48.826;15.176;2022-07-22T14:52:18;54.10;21.30
37794;DHT22;23632;48.826;15.176;2022-07-22T14:54:45;54.30;21.30
37794;DHT22;23632;48.826;15.176;2022-07-22T14:57:12;54.40;21.00
37794;DHT22;23632;48.826;15.176;2022-07-22T14:59:39;54.40;20.60
37794;DHT22;23632;48.826;15.176;2022-07-22T15:02:07;54.60;20.70
37794;DHT22;23632;48.826;15.176;2022-07-22T15:04:35;54.70;20.80
37794;DHT22;23632;48.826;15.176;2022-07-22T15:07:03;54.60;20.30
37794;DHT22;23632;48.826;15.176;2022-07-22T15:09:31;54.80;20.40
37794;DHT22;23632;48.826;15.176;2022-07-22T15:11:59;54.80;20.20
37794;DHT22;23632;48.826;15.176;2022-07-22T15:14:26;54.70;20.10
37794;DHT22;23632;48.826;15.176;2022-07-22T15:16:53;54.60;20.00
37794;DHT22;23632;48.826;15.176;2022-07-22T15:19:20;54.60;20.00
37794;DHT22;23632;48.826;15.176;2022-07-22T15:21:53;54.50;20.00
37794;DHT22;23632;48.826;15.176;2022-07-22T15:24:21;54.50;20.00
37794;DHT22;23632;48.826;15.176;2022-07-22T15:26:48;54.50;19.90
37794;DHT22;23632;48.826;15.176;2022-07-22T15:29:16;54.40;20.00
37794;DHT22;23632;48.826;15.176;2022-07-22T15:31:43;54.40;19.80
37794;DHT22;23632;48.826;15.176;2022-07-22T15:34:11;54.40;20.00
37794;DHT22;23632;48.826;15.176;2022-07-22T15:36:38;54.40;19.80
37794;DHT22;23632;48.826;15.176;2022-07-22T15:39:05;54.30;19.80
37794;DHT22;23632;48.826;15.176;2022-07-22T15:41:33;54.30;19.90
37794;DHT22;23632;48.826;15.176;2022-07-22T15:44:07;54.40;20.00
37794;DHT22;23632;48.826;15.176;2022-07-22T15:46:34;54.40;19.80
37794;DHT22;23632;48.826;15.176;2022-07-22T15:49:01;54.40;19.80
37794;DHT22;23632;48.826;15.176;2022-07-22T15:51:30;54.40;19.90
37794;DHT22;23632;48.826;15.176;2022-07-22T15:53:57;54.40;19.80
37794;DHT22;23632;48.826;15.176;2022-07-22T15:56:25;54.30;19.60
37794;DHT22;23632;48.826;15.176;2022-07-22T15:58:52;54.30;19.60
37794;DHT22;23632;48.826;15.176;2022-07-22T16:01:54;54.30;19.90
37794;DHT22;23632;48.826;15.176;2022-07-22T16:04:21;54.30;19.80
37794;DHT22;23632;48.826;15.176;2022-07-22T16:06:48;54.30;19.70